createdAt,value
2023-04-18T00:01:24.974Z,6.44
2023-04-18T00:03:52.345Z,6.46
2023-04-18T00:06:21.139Z,6.51
2023-04-18T00:08:48.173Z,6.44
2023-04-18T00:11:15.030Z,6.48
2023-04-18T00:13:41.857Z,6.43
2023-04-18T00:16:08.803Z,6.44
2023-04-18T00:18:37.239Z,6.43
2023-04-18T00:21:04.491Z,6.43
2023-04-18T00:23:31.425Z,6.44
2023-04-18T00:25:58.183Z,6.49
2023-04-18T00:28:25.014Z,6.47
2023-04-18T00:30:51.878Z,6.48
2023-04-18T00:33:18.833Z,6.45
2023-04-18T00:35:45.453Z,6.49
2023-04-18T00:38:13.606Z,6.50
2023-04-18T00:40:41.099Z,6.48
2023-04-18T00:43:08.680Z,6.47
2023-04-18T00:45:35.733Z,6.47
2023-04-18T00:48:02.939Z,6.40
2023-04-18T00:50:29.625Z,6.37
2023-04-18T00:52:56.916Z,6.36
2023-04-18T00:55:25.029Z,6.34
2023-04-18T00:57:52.186Z,6.37
2023-04-18T01:00:19.349Z,6.34
2023-04-18T01:02:47.917Z,6.38
2023-04-18T01:05:14.971Z,6.33
2023-04-18T01:07:41.891Z,6.29
2023-04-18T01:10:10.434Z,6.25
2023-04-18T01:12:37.830Z,6.25
2023-04-18T01:15:05.696Z,6.25
2023-04-18T01:17:35.471Z,6.22
2023-04-18T01:20:06.394Z,6.27
2023-04-18T01:22:33.144Z,6.20
2023-04-18T01:25:00.324Z,6.23
2023-04-18T01:27:27.096Z,6.21
2023-04-18T01:29:53.997Z,6.23
2023-04-18T01:32:21.085Z,6.19
2023-04-18T01:34:47.824Z,6.14
2023-04-18T01:37:14.758Z,6.13
2023-04-18T01:39:41.327Z,6.13
2023-04-18T01:42:08.305Z,6.14
2023-04-18T01:44:34.901Z,6.10
2023-04-18T01:47:01.794Z,6.05
2023-04-18T01:49:28.485Z,6.08
2023-04-18T01:51:55.278Z,6.09
2023-04-18T01:54:21.986Z,6.09
2023-04-18T01:56:48.571Z,6.10
2023-04-18T01:59:15.265Z,6.05
2023-04-18T02:01:42.785Z,6.07
2023-04-18T02:04:09.404Z,6.08
2023-04-18T02:06:36.225Z,6.09
2023-04-18T02:09:02.790Z,6.08
2023-04-18T02:11:29.957Z,6.08
2023-04-18T02:13:56.583Z,6.10
2023-04-18T02:16:25.272Z,6.06
2023-04-18T02:18:52.464Z,6.07
2023-04-18T02:21:19.262Z,6.11
2023-04-18T02:23:46.036Z,6.01
2023-04-18T02:26:12.933Z,6.02
2023-04-18T02:28:39.797Z,6.05
2023-04-18T02:31:07.318Z,6.05
2023-04-18T02:33:34.415Z,6.02
2023-04-18T02:36:01.811Z,6.04
2023-04-18T02:38:28.378Z,6.04
2023-04-18T02:40:55.055Z,6.03
2023-04-18T02:43:21.717Z,6.01
2023-04-18T02:45:48.627Z,6.01
2023-04-18T02:48:15.678Z,6.07
2023-04-18T02:50:43.497Z,6.08
2023-04-18T02:53:10.088Z,5.99
2023-04-18T02:55:51.726Z,5.99
2023-04-18T02:58:20.109Z,5.97
2023-04-18T03:01:17.743Z,5.97
2023-04-18T03:03:55.982Z,5.99
2023-04-18T03:06:31.964Z,5.98
2023-04-18T03:09:01.007Z,5.97
2023-04-18T03:11:28.265Z,5.99
2023-04-18T03:13:56.038Z,5.99
2023-04-18T03:16:25.792Z,5.98
2023-04-18T03:18:53.093Z,5.96
2023-04-18T03:21:21.710Z,5.96
2023-04-18T03:23:48.557Z,5.94
2023-04-18T03:26:15.769Z,5.93
2023-04-18T03:28:44.680Z,5.93
2023-04-18T03:31:11.523Z,5.91
2023-04-18T03:33:42.528Z,5.93
2023-04-18T03:36:11.851Z,5.89
2023-04-18T03:38:40.661Z,5.88
2023-04-18T03:41:08.378Z,5.86
2023-04-18T03:43:36.914Z,5.87
2023-04-18T03:46:04.316Z,5.85
2023-04-18T03:48:35.673Z,5.86
2023-04-18T03:51:06.228Z,5.81
2023-04-18T03:53:33.111Z,5.78
2023-04-18T03:56:00.310Z,5.77
2023-04-18T03:58:41.162Z,5.78
2023-04-18T04:01:08.262Z,5.84
2023-04-18T04:03:35.079Z,5.80
2023-04-18T04:06:01.940Z,5.77
2023-04-18T04:08:28.646Z,5.77
2023-04-18T04:10:55.631Z,5.72
2023-04-18T04:13:22.784Z,5.74
2023-04-18T04:15:49.924Z,5.72
2023-04-18T04:18:16.471Z,5.74
2023-04-18T04:20:46.027Z,5.73
2023-04-18T04:23:19.149Z,5.76
2023-04-18T04:25:47.314Z,5.70
2023-04-18T04:28:31.813Z,5.64
2023-04-18T04:31:03.467Z,5.69
2023-04-18T04:33:33.225Z,5.73
2023-04-18T04:36:02.939Z,5.69
2023-04-18T04:38:33.472Z,5.67
2023-04-18T04:41:00.138Z,5.68
2023-04-18T04:43:28.742Z,5.68
2023-04-18T04:45:57.815Z,5.68
2023-04-18T04:48:25.009Z,5.69
2023-04-18T04:50:57.954Z,5.69
2023-04-18T04:53:26.473Z,5.70
2023-04-18T04:55:53.658Z,5.69
2023-04-18T04:58:21.695Z,5.68
2023-04-18T05:01:09.136Z,5.74
2023-04-18T05:03:37.042Z,5.74
2023-04-18T05:06:04.657Z,5.70
2023-04-18T05:08:31.513Z,5.72
2023-04-18T05:10:58.081Z,5.74
2023-04-18T05:13:24.837Z,5.76
2023-04-18T05:15:52.688Z,5.67
2023-04-18T05:18:19.387Z,5.69
2023-04-18T05:20:46.366Z,5.71
2023-04-18T05:23:13.274Z,5.68
2023-04-18T05:25:39.831Z,5.67
2023-04-18T05:28:08.543Z,5.65
2023-04-18T05:30:35.117Z,5.66
2023-04-18T05:33:01.940Z,5.69
2023-04-18T05:35:28.753Z,5.74
2023-04-18T05:37:55.615Z,5.81
2023-04-18T05:40:22.774Z,5.91
2023-04-18T05:42:49.391Z,5.91
2023-04-18T05:45:16.680Z,5.76
2023-04-18T05:47:43.234Z,5.76
2023-04-18T05:50:10.247Z,5.80
2023-04-18T05:52:38.997Z,5.75
2023-04-18T05:55:06.727Z,5.75
2023-04-18T05:57:33.418Z,5.81
2023-04-18T06:00:00.300Z,5.80
2023-04-18T06:02:27.081Z,5.79
2023-04-18T06:04:53.820Z,5.78
2023-04-18T06:07:21.422Z,5.91
2023-04-18T06:09:49.740Z,5.93
2023-04-18T06:12:16.603Z,5.98
2023-04-18T06:14:43.254Z,6.02
2023-04-18T06:17:12.484Z,6.04
2023-04-18T06:19:39.642Z,6.21
2023-04-18T06:22:06.395Z,6.30
2023-04-18T06:24:32.910Z,6.35
2023-04-18T06:26:59.786Z,6.38
2023-04-18T06:29:30.213Z,6.54
2023-04-18T06:31:57.977Z,6.54
2023-04-18T06:34:24.950Z,6.69
2023-04-18T06:36:52.485Z,6.59
2023-04-18T06:39:19.703Z,6.50
2023-04-18T06:41:47.677Z,6.57
2023-04-18T06:44:24.334Z,6.71
2023-04-18T06:46:50.948Z,6.83
2023-04-18T06:49:18.305Z,6.85
2023-04-18T06:51:45.222Z,6.96
2023-04-18T06:54:11.951Z,7.02
2023-04-18T06:56:38.911Z,7.00
2023-04-18T06:59:05.932Z,7.13
2023-04-18T07:01:35.504Z,7.25
2023-04-18T07:04:02.179Z,7.19
2023-04-18T07:06:28.797Z,7.20
2023-04-18T07:09:00.199Z,7.23
2023-04-18T07:11:28.040Z,7.27
2023-04-18T07:13:54.685Z,7.36
2023-04-18T07:16:21.701Z,7.42
2023-04-18T07:18:48.740Z,7.43
2023-04-18T07:21:15.639Z,7.60
2023-04-18T07:23:42.250Z,7.76
2023-04-18T07:26:11.451Z,7.84
2023-04-18T07:28:37.982Z,7.94
2023-04-18T07:31:04.892Z,8.11
2023-04-18T07:33:33.625Z,8.15
2023-04-18T07:36:01.534Z,8.21
2023-04-18T07:38:28.663Z,8.29
2023-04-18T07:40:59.284Z,8.29
2023-04-18T07:43:27.266Z,8.38
2023-04-18T07:45:54.277Z,8.62
2023-04-18T07:48:25.323Z,8.75
2023-04-18T07:50:52.249Z,8.88
2023-04-18T07:53:19.170Z,8.97
2023-04-18T07:55:46.503Z,9.04
2023-04-18T07:58:13.713Z,9.09
2023-04-18T08:00:42.582Z,9.08
2023-04-18T08:03:13.404Z,9.02
2023-04-18T08:05:42.329Z,8.96
2023-04-18T08:08:11.528Z,8.73
2023-04-18T08:10:38.344Z,8.54
2023-04-18T08:13:06.639Z,8.54
2023-04-18T08:15:33.626Z,8.52
2023-04-18T08:18:01.173Z,8.51
2023-04-18T08:20:28.227Z,8.62
2023-04-18T08:25:24.838Z,8.76
2023-04-18T08:27:51.449Z,9.27
2023-04-18T08:30:18.250Z,10.04
2023-04-18T08:32:44.995Z,10.38
2023-04-18T08:35:11.911Z,10.46
2023-04-18T08:37:39.094Z,10.34
2023-04-18T08:40:07.267Z,10.14
2023-04-18T08:42:35.518Z,10.20
2023-04-18T08:45:02.622Z,10.36
2023-04-18T08:47:30.111Z,10.31
2023-04-18T08:49:58.673Z,10.26
2023-04-18T08:52:28.522Z,10.23
2023-04-18T08:54:55.219Z,10.09
2023-04-18T08:57:26.965Z,10.00
2023-04-18T08:59:54.560Z,10.01
2023-04-18T09:02:24.405Z,10.10
2023-04-18T09:04:55.836Z,9.99
2023-04-18T09:07:29.718Z,10.02
2023-04-18T09:09:57.770Z,10.03
2023-04-18T09:12:26.471Z,10.15
2023-04-18T09:14:56.607Z,10.10
2023-04-18T09:17:38.047Z,10.21
2023-04-18T09:20:05.836Z,10.29
2023-04-18T09:22:48.428Z,10.28
2023-04-18T09:25:35.013Z,9.97
2023-04-18T09:28:02.725Z,9.86
2023-04-18T09:30:34.424Z,9.85
2023-04-18T09:33:04.462Z,9.83
2023-04-18T09:35:31.537Z,9.89
2023-04-18T09:37:58.438Z,9.77
2023-04-18T09:40:25.473Z,9.79
2023-04-18T09:42:54.687Z,9.90
2023-04-18T09:45:22.369Z,9.86
2023-04-18T09:47:49.892Z,9.86
2023-04-18T09:50:18.468Z,9.96
2023-04-18T09:52:45.753Z,10.08
2023-04-18T09:55:17.614Z,10.50
2023-04-18T09:57:47.489Z,11.04
2023-04-18T10:00:25.378Z,11.17
2023-04-18T10:03:10.712Z,11.12
2023-04-18T10:05:40.568Z,11.11
2023-04-18T10:08:08.500Z,11.10
2023-04-18T10:10:38.523Z,11.17
2023-04-18T10:13:08.315Z,11.16
2023-04-18T10:15:35.270Z,11.44
2023-04-18T10:18:07.061Z,11.44
2023-04-18T10:20:35.360Z,11.52
2023-04-18T10:23:35.851Z,11.78
2023-04-18T10:26:04.360Z,11.54
2023-04-18T10:28:57.318Z,11.14
2023-04-18T10:31:29.087Z,11.00
2023-04-18T10:36:28.543Z,11.39
2023-04-18T10:39:19.608Z,11.21
2023-04-18T10:41:51.092Z,11.33
2023-04-18T10:44:22.059Z,11.17
2023-04-18T10:46:48.867Z,10.98
2023-04-18T10:49:16.085Z,10.83
2023-04-18T10:51:45.384Z,10.65
2023-04-18T10:54:38.852Z,10.50
2023-04-18T10:57:08.951Z,10.25
2023-04-18T10:59:39.158Z,10.29
2023-04-18T11:02:32.531Z,10.33
2023-04-18T11:05:06.863Z,10.32
2023-04-18T11:07:37.380Z,10.28
2023-04-18T11:10:05.154Z,10.12
2023-04-18T11:12:34.212Z,10.02
2023-04-18T11:15:09.032Z,10.03
2023-04-18T11:17:35.985Z,10.16
2023-04-18T11:20:11.512Z,10.11
2023-04-18T11:22:53.076Z,10.12
2023-04-18T11:25:24.530Z,10.22
2023-04-18T11:27:51.750Z,10.25
2023-04-18T11:30:18.960Z,10.28
2023-04-18T11:32:45.715Z,10.28
2023-04-18T11:35:15.125Z,10.43
2023-04-18T11:37:45.463Z,10.44
2023-04-18T11:40:13.352Z,10.28
2023-04-18T11:42:40.848Z,10.13
2023-04-18T11:45:13.077Z,10.01
2023-04-18T11:47:41.962Z,9.93
2023-04-18T11:50:10.540Z,10.03
2023-04-18T11:52:37.514Z,10.15
2023-04-18T11:55:24.959Z,10.42
2023-04-18T11:57:59.422Z,10.56
2023-04-18T12:00:41.608Z,10.69
2023-04-18T12:03:16.314Z,10.60
2023-04-18T12:05:43.423Z,10.41
2023-04-18T12:08:18.997Z,10.44
2023-04-18T12:10:50.763Z,10.49
2023-04-18T12:13:18.676Z,10.69
2023-04-18T12:15:47.014Z,10.85
2023-04-18T12:18:16.188Z,11.07
2023-04-18T12:20:50.888Z,10.87
2023-04-18T12:23:31.055Z,10.94
2023-04-18T12:26:15.012Z,10.78
2023-04-18T12:28:45.713Z,10.56
2023-04-18T12:31:12.844Z,10.39
2023-04-18T12:33:39.593Z,10.33
2023-04-18T12:36:08.510Z,10.18
2023-04-18T12:38:35.757Z,10.18
2023-04-18T12:41:02.658Z,10.59
2023-04-18T12:43:29.305Z,10.93
2023-04-18T12:45:56.158Z,11.12
2023-04-18T12:48:22.801Z,11.22
2023-04-18T12:50:49.574Z,11.39
2023-04-18T12:53:16.096Z,11.38
2023-04-18T12:55:42.929Z,11.57
2023-04-18T12:58:09.598Z,11.87
2023-04-18T13:00:36.454Z,11.63
2023-04-18T13:03:03.328Z,11.42
2023-04-18T13:05:33.451Z,11.29
2023-04-18T13:10:31.068Z,11.13
2023-04-18T13:12:57.822Z,11.23
2023-04-18T13:15:24.888Z,11.23
2023-04-18T13:17:51.790Z,11.23
2023-04-18T13:20:19.028Z,11.28
2023-04-18T13:22:45.730Z,11.00
2023-04-18T13:25:12.514Z,10.95
2023-04-18T13:27:42.014Z,10.97
2023-04-18T13:30:10.679Z,11.12
2023-04-18T13:32:39.024Z,11.30
2023-04-18T13:35:08.841Z,11.48
2023-04-18T13:37:36.189Z,12.12
2023-04-18T13:40:06.912Z,12.86
2023-04-18T13:42:34.145Z,13.28
2023-04-18T13:45:00.794Z,13.75
2023-04-18T13:47:27.640Z,13.48
2023-04-18T13:49:54.383Z,13.09
2023-04-18T13:52:21.220Z,12.88
2023-04-18T13:54:48.161Z,12.74
2023-04-18T13:57:14.892Z,12.80
2023-04-18T13:59:41.533Z,12.49
2023-04-18T14:02:09.764Z,12.13
2023-04-18T14:04:37.059Z,11.93
2023-04-18T14:07:04.271Z,11.87
2023-04-18T14:09:30.956Z,11.61
2023-04-18T14:11:58.414Z,11.81
2023-04-18T14:14:25.901Z,11.95
2023-04-18T14:16:53.688Z,12.05
2023-04-18T14:19:20.598Z,12.00
2023-04-18T14:21:48.307Z,11.87
2023-04-18T14:24:15.152Z,11.76
2023-04-18T14:26:41.815Z,11.82
2023-04-18T14:29:08.718Z,11.98
2023-04-18T14:31:35.502Z,11.96
2023-04-18T14:34:02.336Z,11.99
2023-04-18T14:36:28.991Z,11.85
2023-04-18T14:38:55.839Z,11.83
2023-04-18T14:41:22.403Z,11.45
2023-04-18T14:43:49.416Z,11.35
2023-04-18T14:46:16.581Z,11.35
2023-04-18T14:48:47.380Z,11.42
2023-04-18T14:51:17.438Z,11.44
2023-04-18T14:53:44.919Z,11.41
2023-04-18T14:56:11.898Z,11.45
2023-04-18T14:58:38.786Z,11.51
2023-04-18T15:01:05.815Z,11.58
2023-04-18T15:03:33.235Z,12.66
2023-04-18T15:06:00.478Z,12.97
2023-04-18T15:08:27.268Z,14.12
2023-04-18T15:10:54.101Z,15.96
2023-04-18T15:13:20.919Z,17.49
2023-04-18T15:15:54.577Z,18.41
2023-04-18T15:18:21.529Z,19.12
2023-04-18T15:20:48.201Z,18.55
2023-04-18T15:23:15.582Z,18.34
2023-04-18T15:25:43.854Z,17.96
2023-04-18T15:28:10.475Z,17.80
2023-04-18T15:30:38.828Z,16.91
2023-04-18T15:33:05.635Z,17.61
2023-04-18T15:35:32.197Z,17.80
2023-04-18T15:37:59.403Z,17.49
2023-04-18T15:40:26.279Z,17.03
2023-04-18T15:42:54.239Z,17.04
2023-04-18T15:45:22.023Z,15.85
2023-04-18T15:47:48.968Z,14.77
2023-04-18T15:50:18.759Z,14.04
2023-04-18T15:52:45.412Z,13.96
2023-04-18T15:55:15.722Z,13.57
2023-04-18T15:57:42.365Z,13.19
2023-04-18T16:00:15.854Z,12.79
2023-04-18T16:02:44.139Z,12.83
2023-04-18T16:05:12.482Z,12.59
2023-04-18T16:07:40.151Z,12.58
2023-04-18T16:10:10.291Z,12.53
2023-04-18T16:12:38.584Z,12.25
2023-04-18T16:15:06.869Z,11.97
2023-04-18T16:17:33.611Z,11.39
2023-04-18T16:20:00.292Z,11.32
2023-04-18T16:22:29.680Z,11.13
2023-04-18T16:24:56.502Z,11.00
2023-04-18T16:27:23.079Z,10.91
2023-04-18T16:29:49.849Z,10.76
2023-04-18T16:32:16.699Z,10.72
2023-04-18T16:34:43.312Z,10.70
2023-04-18T16:37:10.053Z,10.58
2023-04-18T16:39:37.305Z,10.53
2023-04-18T16:42:04.305Z,10.53
2023-04-18T16:44:31.149Z,10.47
2023-04-18T16:46:58.064Z,10.50
2023-04-18T16:49:25.294Z,10.40
2023-04-18T16:51:52.172Z,10.30
2023-04-18T16:54:19.120Z,10.25
2023-04-18T16:56:45.866Z,10.12
2023-04-18T16:59:12.819Z,10.11
2023-04-18T17:01:39.592Z,10.13
2023-04-18T17:04:06.344Z,10.10
2023-04-18T17:06:33.088Z,10.03
2023-04-18T17:09:00.135Z,9.72
2023-04-18T17:11:26.788Z,9.70
2023-04-18T17:13:53.768Z,9.62
2023-04-18T17:16:20.661Z,9.56
2023-04-18T17:18:47.530Z,9.55
2023-04-18T17:21:14.114Z,9.46
2023-04-18T17:23:42.457Z,9.24
2023-04-18T17:26:09.624Z,9.22
2023-04-18T17:28:36.440Z,9.24
2023-04-18T17:31:03.713Z,9.25
2023-04-18T17:33:31.377Z,9.22
2023-04-18T17:35:58.407Z,9.22
2023-04-18T17:38:25.205Z,9.18
2023-04-18T17:41:02.488Z,9.16
2023-04-18T17:43:29.488Z,9.14
2023-04-18T17:45:59.803Z,9.04
2023-04-18T17:48:26.535Z,9.01
2023-04-18T17:50:53.065Z,8.98
2023-04-18T17:53:19.753Z,8.93
2023-04-18T17:55:48.898Z,8.90
2023-04-18T17:58:16.854Z,8.84
2023-04-18T18:00:43.602Z,8.85
2023-04-18T18:03:13.765Z,8.84
2023-04-18T18:05:41.328Z,8.80
2023-04-18T18:08:08.097Z,8.76
2023-04-18T18:10:34.992Z,8.72
2023-04-18T18:13:01.693Z,8.72
2023-04-18T18:15:28.574Z,8.67
2023-04-18T18:17:55.704Z,8.57
2023-04-18T18:20:22.748Z,8.54
2023-04-18T18:22:49.562Z,8.50
2023-04-18T18:25:16.310Z,8.47
2023-04-18T18:27:43.160Z,8.44
2023-04-18T18:30:10.147Z,8.48
2023-04-18T18:32:36.767Z,8.42
2023-04-18T18:35:05.619Z,8.33
2023-04-18T18:37:33.011Z,8.36
2023-04-18T18:39:59.912Z,8.31
2023-04-18T18:42:26.823Z,8.27
2023-04-18T18:44:53.420Z,8.24
2023-04-18T18:47:20.126Z,8.29
2023-04-18T18:49:48.764Z,8.23
2023-04-18T18:52:16.062Z,8.20
2023-04-18T18:54:43.044Z,8.15
2023-04-18T18:57:09.727Z,8.15
2023-04-18T18:59:36.436Z,8.14
2023-04-18T19:02:03.395Z,8.16
2023-04-18T19:04:30.139Z,8.09
2023-04-18T19:06:57.045Z,8.08
2023-04-18T19:09:23.637Z,8.09
2023-04-18T19:11:51.220Z,8.05
2023-04-18T19:14:17.842Z,8.07
2023-04-18T19:16:44.643Z,8.01
2023-04-18T19:19:11.501Z,8.05
2023-04-18T19:21:39.856Z,8.05
2023-04-18T19:24:06.747Z,8.00
2023-04-18T19:26:33.528Z,8.01
2023-04-18T19:29:00.303Z,7.98
2023-04-18T19:31:26.867Z,7.99
2023-04-18T19:33:53.461Z,8.03
2023-04-18T19:36:22.342Z,8.01
2023-04-18T19:38:49.265Z,8.05
2023-04-18T19:41:15.873Z,8.06
2023-04-18T19:43:42.724Z,8.02
2023-04-18T19:46:09.697Z,7.96
2023-04-18T19:48:36.690Z,7.99
2023-04-18T19:51:04.642Z,8.04
2023-04-18T19:53:31.380Z,8.01
2023-04-18T19:55:57.933Z,7.97
2023-04-18T19:58:34.659Z,7.97
2023-04-18T20:01:01.552Z,8.02
2023-04-18T20:03:28.617Z,8.02
2023-04-18T20:05:55.528Z,8.03
2023-04-18T20:08:22.194Z,8.08
2023-04-18T20:10:48.855Z,8.07
2023-04-18T20:13:15.517Z,8.06
2023-04-18T20:15:42.167Z,8.06
2023-04-18T20:18:09.132Z,7.98
2023-04-18T20:20:35.717Z,8.02
2023-04-18T20:23:03.343Z,7.97
2023-04-18T20:25:30.101Z,7.98
2023-04-18T20:27:56.732Z,7.99
2023-04-18T20:30:23.820Z,7.96
2023-04-18T20:32:50.560Z,7.94
2023-04-18T20:35:17.529Z,7.94
2023-04-18T20:37:44.649Z,7.91
2023-04-18T20:40:11.752Z,7.92
2023-04-18T20:42:39.130Z,7.93
2023-04-18T20:45:06.395Z,7.91
2023-04-18T20:47:33.982Z,7.94
2023-04-18T20:50:00.625Z,7.95
2023-04-18T20:52:27.202Z,7.89
2023-04-18T20:54:53.978Z,7.90
2023-04-18T20:57:20.761Z,7.90
2023-04-18T20:59:47.598Z,7.92
2023-04-18T21:02:14.715Z,7.94
2023-04-18T21:04:41.437Z,7.87
2023-04-18T21:07:08.317Z,7.83
2023-04-18T21:09:36.933Z,7.81
2023-04-18T21:12:04.205Z,7.83
2023-04-18T21:14:31.253Z,7.82
2023-04-18T21:16:58.532Z,7.82
2023-04-18T21:19:25.167Z,7.84
2023-04-18T21:21:51.720Z,7.81
2023-04-18T21:24:18.748Z,7.80
2023-04-18T21:26:45.339Z,7.80
2023-04-18T21:29:12.138Z,7.73
2023-04-18T21:31:38.691Z,7.73
2023-04-18T21:34:05.554Z,7.75
2023-04-18T21:36:32.348Z,7.73
2023-04-18T21:39:01.032Z,7.67
2023-04-18T21:41:28.204Z,7.67
2023-04-18T21:43:54.832Z,7.67
2023-04-18T21:46:21.867Z,7.62
2023-04-18T21:48:48.545Z,7.68
2023-04-18T21:51:16.648Z,7.68
2023-04-18T21:53:44.090Z,7.63
2023-04-18T21:56:11.030Z,7.60
2023-04-18T21:58:37.824Z,7.58
2023-04-18T22:01:04.491Z,7.56
2023-04-18T22:03:33.420Z,7.53
2023-04-18T22:06:01.320Z,7.52
2023-04-18T22:08:29.495Z,7.47
2023-04-18T22:10:58.976Z,7.40
2023-04-18T22:13:29.972Z,7.35
2023-04-18T22:15:58.148Z,7.38
2023-04-18T22:18:25.261Z,7.40
2023-04-18T22:20:53.598Z,7.41
2023-04-18T22:23:20.776Z,7.43
2023-04-18T22:25:48.129Z,7.44
2023-04-18T22:28:15.173Z,7.43
2023-04-18T22:30:41.875Z,7.39
2023-04-18T22:33:08.604Z,7.38
2023-04-18T22:35:35.318Z,7.39
2023-04-18T22:38:01.889Z,7.39
2023-04-18T22:40:28.645Z,7.42
2023-04-18T22:42:56.064Z,7.46
2023-04-18T22:45:22.817Z,7.41
2023-04-18T22:47:49.540Z,7.35
2023-04-18T22:50:16.404Z,7.36
2023-04-18T22:52:43.195Z,7.37
2023-04-18T22:55:09.995Z,7.39
2023-04-18T22:57:38.165Z,7.34
2023-04-18T23:00:06.564Z,7.34
2023-04-18T23:02:33.499Z,7.32
2023-04-18T23:05:02.298Z,7.32
2023-04-18T23:07:29.276Z,7.30
2023-04-18T23:09:56.119Z,7.25
2023-04-18T23:12:22.824Z,7.26
2023-04-18T23:14:49.767Z,7.28
2023-04-18T23:17:16.300Z,7.28
2023-04-18T23:19:45.015Z,7.28
2023-04-18T23:22:11.915Z,7.30
2023-04-18T23:24:38.856Z,7.26
2023-04-18T23:27:05.932Z,7.24
2023-04-18T23:29:38.160Z,7.27
2023-04-18T23:32:05.466Z,7.27
2023-04-18T23:34:32.371Z,7.28
2023-04-18T23:36:59.495Z,7.25
2023-04-18T23:39:26.914Z,7.22
2023-04-18T23:41:53.871Z,7.23
2023-04-18T23:44:20.545Z,7.28
2023-04-18T23:46:47.735Z,7.23
2023-04-18T23:49:15.395Z,7.18
2023-04-18T23:51:42.452Z,7.11
2023-04-18T23:54:09.077Z,7.09
2023-04-18T23:56:35.763Z,7.09
2023-04-18T23:59:02.688Z,7.03
